EKKA

Karup Airport

Karup, Denmark
METAR EKKA 180250Z AUTO 18006KT 150V210 5000NDV OVC004/// 02/01 Q1016 R27L/290095
Observed Flight Rules
Dec-18 @ 02:50 UTC (12 minutes ago) Instrument Flight Rules
Wind Visibility Clouds
180° at 6 knots 97 meters
  • Overcast at 400' AGL
Temperatures Readings
Current 2°C / 36°F
Dewpoint 1°C / 34°F
Humidity 93%
Altimeter 30" Hg
Pressure 1016 hPa
Elevation 52
METAR EKKA 180250Z AUTO 18006KT 150V210 5000NDV OVC004/// 02/01 Q1016 R27L/290095
Observed Flight Rules
Dec-18 @ 02:50 UTC
(12 minutes ago)
LIFR
Wind Visibility
180° at 6 knots 97 meters
Clouds
  • Overcast at 400' AGL
Temperature Dewpoint
2°C / 36°F 1°C / 34°F
Humidity Altimeter Pressure
93% 30" Hg 1016 hPa